sensor_id;sensor_type;location;lat;lon;timestamp;pressure;altitude;pressure_sealevel;temperature;humidity
55070;BME280;40967;52.070;8.596;2022-10-17T00:00:28;100787.66;;;13.84;90.62
55070;BME280;40967;52.070;8.596;2022-10-17T00:02:54;100797.75;;;13.83;91.00
55070;BME280;40967;52.070;8.596;2022-10-17T00:05:19;100793.94;;;13.84;91.09
55070;BME280;40967;52.070;8.596;2022-10-17T00:07:45;100789.84;;;13.82;91.31
55070;BME280;40967;52.070;8.596;2022-10-17T00:10:10;100784.44;;;13.77;91.71
55070;BME280;40967;52.070;8.596;2022-10-17T00:12:36;100793.44;;;13.77;91.82
55070;BME280;40967;52.070;8.596;2022-10-17T00:15:05;100795.13;;;13.68;91.96
55070;BME280;40967;52.070;8.596;2022-10-17T00:17:31;100795.66;;;13.70;91.67
55070;BME280;40967;52.070;8.596;2022-10-17T00:19:58;100807.13;;;13.72;91.32
55070;BME280;40967;52.070;8.596;2022-10-17T00:22:23;100797.31;;;13.66;91.52
55070;BME280;40967;52.070;8.596;2022-10-17T00:24:49;100803.31;;;13.68;91.82
55070;BME280;40967;52.070;8.596;2022-10-17T00:27:14;100799.25;;;13.65;91.79
55070;BME280;40967;52.070;8.596;2022-10-17T00:29:39;100785.13;;;13.58;91.94
55070;BME280;40967;52.070;8.596;2022-10-17T00:32:05;100798.16;;;13.66;91.74
55070;BME280;40967;52.070;8.596;2022-10-17T00:34:30;100794.91;;;13.59;92.25
55070;BME280;40967;52.070;8.596;2022-10-17T00:36:56;100796.53;;;13.65;91.91
55070;BME280;40967;52.070;8.596;2022-10-17T00:39:21;100797.91;;;13.63;92.16
55070;BME280;40967;52.070;8.596;2022-10-17T00:41:46;100792.47;;;13.58;92.11
55070;BME280;40967;52.070;8.596;2022-10-17T00:47:02;100798.72;;;13.63;92.43
55070;BME280;40967;52.070;8.596;2022-10-17T00:49:31;100798.72;;;13.63;92.62
55070;BME280;40967;52.070;8.596;2022-10-17T00:52:03;100783.75;;;13.56;93.00
55070;BME280;40967;52.070;8.596;2022-10-17T00:54:52;100792.19;;;13.59;92.96
55070;BME280;40967;52.070;8.596;2022-10-17T00:57:19;100794.91;;;13.59;93.19
55070;BME280;40967;52.070;8.596;2022-10-17T00:59:49;100792.19;;;13.59;93.50
55070;BME280;40967;52.070;8.596;2022-10-17T01:02:18;100793.06;;;13.55;92.99
55070;BME280;40967;52.070;8.596;2022-10-17T01:04:46;100796.03;;;13.58;93.49
55070;BME280;40967;52.070;8.596;2022-10-17T01:07:13;100791.66;;;13.57;93.72
55070;BME280;40967;52.070;8.596;2022-10-17T01:09:38;100788.69;;;13.54;93.80
55070;BME280;40967;52.070;8.596;2022-10-17T01:18:06;100797.97;;;13.53;93.80
55070;BME280;40967;52.070;8.596;2022-10-17T01:20:59;100798.25;;;13.51;93.72
55070;BME280;40967;52.070;8.596;2022-10-17T01:23:53;100795.53;;;13.51;94.06
55070;BME280;40967;52.070;8.596;2022-10-17T01:29:32;100783.50;;;13.52;95.92
55070;BME280;40967;52.070;8.596;2022-10-17T01:32:36;100788.16;;;13.52;95.86
55070;BME280;40967;52.070;8.596;2022-10-17T01:35:10;100783.50;;;13.52;96.62
55070;BME280;40967;52.070;8.596;2022-10-17T01:37:58;100790.06;;;13.51;96.63
55070;BME280;40967;52.070;8.596;2022-10-17T01:43:17;100782.97;;;13.50;96.56
55070;BME280;40967;52.070;8.596;2022-10-17T01:48:16;100774.25;;;13.48;96.59
55070;BME280;40967;52.070;8.596;2022-10-17T01:50:48;100770.22;;;13.46;95.97
55070;BME280;40967;52.070;8.596;2022-10-17T01:53:23;100772.66;;;13.47;96.05
55070;BME280;40967;52.070;8.596;2022-10-17T01:55:51;100766.13;;;13.43;96.19
55070;BME280;40967;52.070;8.596;2022-10-17T01:58:23;100746.81;;;13.35;96.88
55070;BME280;40967;52.070;8.596;2022-10-17T02:00:53;100760.38;;;13.50;97.30
55070;BME280;40967;52.070;8.596;2022-10-17T02:03:20;100750.59;;;13.44;97.47
55070;BME280;40967;52.070;8.596;2022-10-17T02:05:46;100747.56;;;13.45;97.50
55070;BME280;40967;52.070;8.596;2022-10-17T02:08:12;100751.94;;;13.46;96.91
55070;BME280;40967;52.070;8.596;2022-10-17T02:10:46;100748.69;;;13.44;96.96
55070;BME280;40967;52.070;8.596;2022-10-17T02:13:44;100739.69;;;13.44;96.69
55070;BME280;40967;52.070;8.596;2022-10-17T02:19:00;100743.78;;;13.41;96.09
55070;BME280;40967;52.070;8.596;2022-10-17T02:21:50;100730.19;;;13.36;96.64
55070;BME280;40967;52.070;8.596;2022-10-17T02:27:10;100745.97;;;13.44;97.38
55070;BME280;40967;52.070;8.596;2022-10-17T02:29:46;100736.44;;;13.42;97.16
55070;BME280;40967;52.070;8.596;2022-10-17T02:32:27;100728.03;;;13.33;97.49
55070;BME280;40967;52.070;8.596;2022-10-17T02:34:59;100732.09;;;13.41;97.30
55070;BME280;40967;52.070;8.596;2022-10-17T02:37:27;100738.63;;;13.40;97.44
55070;BME280;40967;52.070;8.596;2022-10-17T02:39:56;100739.72;;;13.39;96.88
55070;BME280;40967;52.070;8.596;2022-10-17T02:42:23;100736.22;;;13.33;97.00
55070;BME280;40967;52.070;8.596;2022-10-17T02:44:49;100741.09;;;13.36;96.92
55070;BME280;40967;52.070;8.596;2022-10-17T02:47:22;100722.63;;;13.28;96.96
55070;BME280;40967;52.070;8.596;2022-10-17T02:49:52;100729.66;;;13.34;96.78
55070;BME280;40967;52.070;8.596;2022-10-17T02:52:26;100719.91;;;13.28;97.02
55070;BME280;40967;52.070;8.596;2022-10-17T02:54:58;100725.59;;;13.32;97.17
55070;BME280;40967;52.070;8.596;2022-10-17T02:57:55;100729.16;;;13.32;97.29
55070;BME280;40967;52.070;8.596;2022-10-17T03:00:23;100727.50;;;13.31;97.56
55070;BME280;40967;52.070;8.596;2022-10-17T03:02:51;100727.22;;;13.33;97.85
55070;BME280;40967;52.070;8.596;2022-10-17T03:05:26;100700.06;;;13.18;97.50
55070;BME280;40967;52.070;8.596;2022-10-17T03:07:52;100722.59;;;13.33;98.14
55070;BME280;40967;52.070;8.596;2022-10-17T03:10:18;100728.31;;;13.32;98.49
55070;BME280;40967;52.070;8.596;2022-10-17T03:12:44;100720.97;;;13.32;98.40
55070;BME280;40967;52.070;8.596;2022-10-17T03:15:10;100723.69;;;13.32;98.72
55070;BME280;40967;52.070;8.596;2022-10-17T03:17:37;100719.91;;;13.28;98.86
55070;BME280;40967;52.070;8.596;2022-10-17T03:20:04;100729.69;;;13.29;98.33
55070;BME280;40967;52.070;8.596;2022-10-17T03:22:29;100724.81;;;13.26;98.66
55070;BME280;40967;52.070;8.596;2022-10-17T03:24:55;100713.41;;;13.19;98.51
55070;BME280;40967;52.070;8.596;2022-10-17T03:27:20;100724.53;;;13.28;99.04
55070;BME280;40967;52.070;8.596;2022-10-17T03:29:46;100730.78;;;13.28;98.94
55070;BME280;40967;52.070;8.596;2022-10-17T03:32:11;100733.22;;;13.30;99.45
55070;BME280;40967;52.070;8.596;2022-10-17T03:34:37;100737.84;;;13.29;99.08
55070;BME280;40967;52.070;8.596;2022-10-17T03:37:02;100728.09;;;13.23;99.24
55070;BME280;40967;52.070;8.596;2022-10-17T03:39:28;100744.13;;;13.30;99.64
55070;BME280;40967;52.070;8.596;2022-10-17T03:41:53;100734.63;;;13.27;99.59
55070;BME280;40967;52.070;8.596;2022-10-17T03:44:18;100748.25;;;13.27;99.43
55070;BME280;40967;52.070;8.596;2022-10-17T03:46:44;100749.63;;;13.25;99.23
55070;BME280;40967;52.070;8.596;2022-10-17T03:49:09;100742.25;;;13.25;98.87
55070;BME280;40967;52.070;8.596;2022-10-17T03:51:35;100747.72;;;13.25;99.02
55070;BME280;40967;52.070;8.596;2022-10-17T03:54:00;100742.25;;;13.25;98.50
55070;BME280;40967;52.070;8.596;2022-10-17T03:56:26;100746.06;;;13.24;98.53
55070;BME280;40967;52.070;8.596;2022-10-17T03:58:59;100748.00;;;13.24;98.84
55070;BME280;40967;52.070;8.596;2022-10-17T04:01:25;100739.31;;;13.17;98.51
55070;BME280;40967;52.070;8.596;2022-10-17T04:03:52;100742.31;;;13.15;98.11
55070;BME280;40967;52.070;8.596;2022-10-17T04:06:19;100746.09;;;13.19;98.94
55070;BME280;40967;52.070;8.596;2022-10-17T04:08:45;100746.38;;;13.18;98.93
55070;BME280;40967;52.070;8.596;2022-10-17T04:11:15;100736.59;;;13.12;99.03
55070;BME280;40967;52.070;8.596;2022-10-17T04:13:41;100734.16;;;13.10;99.46
55070;BME280;40967;52.070;8.596;2022-10-17T04:16:09;100756.47;;;13.17;99.80
55070;BME280;40967;52.070;8.596;2022-10-17T04:18:36;100751.59;;;13.14;99.82
55070;BME280;40967;52.070;8.596;2022-10-17T04:21:02;100754.34;;;13.09;99.38
55070;BME280;40967;52.070;8.596;2022-10-17T04:23:28;100749.97;;;13.08;99.56
55070;BME280;40967;52.070;8.596;2022-10-17T04:25:58;100745.91;;;13.06;99.09
55070;BME280;40967;52.070;8.596;2022-10-17T04:28:25;100745.63;;;13.07;98.67
55070;BME280;40967;52.070;8.596;2022-10-17T04:31:19;100743.19;;;13.06;98.29
55070;BME280;40967;52.070;8.596;2022-10-17T04:34:29;100737.19;;;13.04;98.37
55070;BME280;40967;52.070;8.596;2022-10-17T04:37:24;100735.59;;;13.03;98.35
55070;BME280;40967;52.070;8.596;2022-10-17T04:40:16;100739.09;;;13.03;98.33
55070;BME280;40967;52.070;8.596;2022-10-17T04:43:19;100752.72;;;13.03;99.04
55070;BME280;40967;52.070;8.596;2022-10-17T04:46:37;100755.44;;;13.03;99.50
55070;BME280;40967;52.070;8.596;2022-10-17T04:52:22;100751.66;;;12.89;100.00
55070;BME280;40967;52.070;8.596;2022-10-17T04:54:49;100768.25;;;12.98;99.98
55070;BME280;40967;52.070;8.596;2022-10-17T04:57:14;100772.63;;;12.94;99.93
55070;BME280;40967;52.070;8.596;2022-10-17T04:59:40;100775.06;;;12.95;99.52
55070;BME280;40967;52.070;8.596;2022-10-17T05:02:06;100758.19;;;12.93;99.54
55070;BME280;40967;52.070;8.596;2022-10-17T05:04:31;100759.28;;;12.92;99.60
55070;BME280;40967;52.070;8.596;2022-10-17T05:06:57;100767.19;;;12.94;99.58
55070;BME280;40967;52.070;8.596;2022-10-17T05:09:22;100741.91;;;12.83;99.91
55070;BME280;40967;52.070;8.596;2022-10-17T05:11:47;100752.19;;;12.91;100.00
55070;BME280;40967;52.070;8.596;2022-10-17T05:14:14;100753.84;;;12.92;100.00
55070;BME280;40967;52.070;8.596;2022-10-17T05:16:39;100751.16;;;12.87;100.00
55070;BME280;40967;52.070;8.596;2022-10-17T05:19:05;100746.53;;;12.83;99.93
55070;BME280;40967;52.070;8.596;2022-10-17T05:21:31;100767.50;;;12.87;100.00
55070;BME280;40967;52.070;8.596;2022-10-17T05:23:57;100763.94;;;12.87;100.00
55070;BME280;40967;52.070;8.596;2022-10-17T05:26:26;100752.22;;;12.86;100.00
55070;BME280;40967;52.070;8.596;2022-10-17T05:29:02;100760.69;;;12.85;100.00
55070;BME280;40967;52.070;8.596;2022-10-17T05:31:31;100726.44;;;12.64;99.41
55070;BME280;40967;52.070;8.596;2022-10-17T05:34:00;100758.81;;;12.80;99.28
55070;BME280;40967;52.070;8.596;2022-10-17T05:36:32;100750.91;;;12.74;99.54
55070;BME280;40967;52.070;8.596;2022-10-17T05:39:10;100758.53;;;12.77;99.59
55070;BME280;40967;52.070;8.596;2022-10-17T05:41:37;100760.69;;;12.80;99.54
55070;BME280;40967;52.070;8.596;2022-10-17T05:44:03;100759.88;;;12.79;99.58
55070;BME280;40967;52.070;8.596;2022-10-17T05:46:32;100747.38;;;12.73;99.65
55070;BME280;40967;52.070;8.596;2022-10-17T05:49:01;100755.25;;;12.80;100.00
55070;BME280;40967;52.070;8.596;2022-10-17T05:51:32;100748.47;;;12.72;100.00
55070;BME280;40967;52.070;8.596;2022-10-17T05:54:05;100760.41;;;12.81;100.00
55070;BME280;40967;52.070;8.596;2022-10-17T05:56:37;100751.75;;;12.69;100.00
55070;BME280;40967;52.070;8.596;2022-10-17T05:59:06;100768.03;;;12.79;100.00
55070;BME280;40967;52.070;8.596;2022-10-17T06:01:38;100760.69;;;12.80;100.00
55070;BME280;40967;52.070;8.596;2022-10-17T06:04:04;100765.03;;;12.81;100.00
55070;BME280;40967;52.070;8.596;2022-10-17T06:06:40;100758.53;;;12.82;100.00
55070;BME280;40967;52.070;8.596;2022-10-17T06:09:16;100760.13;;;12.83;100.00
55070;BME280;40967;52.070;8.596;2022-10-17T06:11:58;100761.50;;;12.85;100.00
55070;BME280;40967;52.070;8.596;2022-10-17T06:14:34;100766.38;;;12.88;100.00
55070;BME280;40967;52.070;8.596;2022-10-17T06:17:02;100764.47;;;12.89;100.00
55070;BME280;40967;52.070;8.596;2022-10-17T06:19:29;100779.44;;;12.91;100.00
55070;BME280;40967;52.070;8.596;2022-10-17T06:21:55;100779.97;;;12.93;100.00
55070;BME280;40967;52.070;8.596;2022-10-17T06:24:37;100787.31;;;12.98;100.00
55070;BME280;40967;52.070;8.596;2022-10-17T06:27:07;100794.09;;;13.00;100.00
55070;BME280;40967;52.070;8.596;2022-10-17T06:29:36;100800.13;;;13.02;100.00
55070;BME280;40967;52.070;8.596;2022-10-17T06:32:05;100796.84;;;13.05;100.00
55070;BME280;40967;52.070;8.596;2022-10-17T06:34:32;100791.38;;;13.00;100.00
55070;BME280;40967;52.070;8.596;2022-10-17T06:37:07;100803.09;;;13.11;100.00
55070;BME280;40967;52.070;8.596;2022-10-17T06:39:48;100814.78;;;13.16;100.00
55070;BME280;40967;52.070;8.596;2022-10-17T06:42:22;100812.84;;;13.22;100.00
55070;BME280;40967;52.070;8.596;2022-10-17T06:44:54;100818.81;;;13.29;100.00
55070;BME280;40967;52.070;8.596;2022-10-17T06:47:23;100820.13;;;13.36;100.00
55070;BME280;40967;52.070;8.596;2022-10-17T06:50:20;100838.09;;;13.42;100.00
55070;BME280;40967;52.070;8.596;2022-10-17T06:53:01;100846.78;;;13.49;100.00
55070;BME280;40967;52.070;8.596;2022-10-17T06:55:31;100847.00;;;13.58;100.00
55070;BME280;40967;52.070;8.596;2022-10-17T06:58:00;100835.25;;;13.62;100.00
55070;BME280;40967;52.070;8.596;2022-10-17T07:00:30;100840.88;;;13.76;100.00
55070;BME280;40967;52.070;8.596;2022-10-17T07:03:35;100843.28;;;13.88;100.00
55070;BME280;40967;52.070;8.596;2022-10-17T07:06:19;100847.31;;;13.95;100.00
55070;BME280;40967;52.070;8.596;2022-10-17T07:08:47;100861.69;;;14.11;100.00
55070;BME280;40967;52.070;8.596;2022-10-17T07:11:19;100873.59;;;14.20;100.00
55070;BME280;40967;52.070;8.596;2022-10-17T07:13:57;100870.31;;;14.28;100.00
55070;BME280;40967;52.070;8.596;2022-10-17T07:16:26;100841.13;;;14.18;100.00
55070;BME280;40967;52.070;8.596;2022-10-17T07:19:09;100883.81;;;14.43;100.00
55070;BME280;40967;52.070;8.596;2022-10-17T07:21:38;100872.03;;;14.47;100.00
55070;BME280;40967;52.070;8.596;2022-10-17T07:24:14;100862.50;;;14.45;100.00
55070;BME280;40967;52.070;8.596;2022-10-17T07:26:44;100876.25;;;14.63;100.00
55070;BME280;40967;52.070;8.596;2022-10-17T07:29:19;100853.38;;;14.54;100.00
55070;BME280;40967;52.070;8.596;2022-10-17T07:31:50;100884.31;;;14.78;100.00
55070;BME280;40967;52.070;8.596;2022-10-17T07:34:17;100889.97;;;14.87;100.00
55070;BME280;40967;52.070;8.596;2022-10-17T07:39:53;100872.41;;;14.93;100.00
55070;BME280;40967;52.070;8.596;2022-10-17T07:42:22;100879.41;;;15.04;100.00
55070;BME280;40967;52.070;8.596;2022-10-17T07:44:57;100880.09;;;15.15;100.00
55070;BME280;40967;52.070;8.596;2022-10-17T07:47:23;100887.53;;;15.33;100.00
55070;BME280;40967;52.070;8.596;2022-10-17T07:49:55;100879.25;;;15.43;100.00
55070;BME280;40967;52.070;8.596;2022-10-17T07:52:21;100881.56;;;15.54;100.00
55070;BME280;40967;52.070;8.596;2022-10-17T07:54:46;100880.09;;;15.62;100.00
55070;BME280;40967;52.070;8.596;2022-10-17T07:57:11;100888.38;;;15.75;100.00
55070;BME280;40967;52.070;8.596;2022-10-17T07:59:37;100882.84;;;15.80;100.00
55070;BME280;40967;52.070;8.596;2022-10-17T08:02:03;100892.47;;;15.97;100.00
55070;BME280;40967;52.070;8.596;2022-10-17T08:04:28;100878.09;;;16.05;100.00
55070;BME280;40967;52.070;8.596;2022-10-17T08:06:54;100883.94;;;16.17;100.00
55070;BME280;40967;52.070;8.596;2022-10-17T08:09:20;100890.88;;;16.28;100.00
55070;BME280;40967;52.070;8.596;2022-10-17T08:11:46;100891.81;;;16.37;100.00
55070;BME280;40967;52.070;8.596;2022-10-17T08:14:12;100886.50;;;16.45;100.00
55070;BME280;40967;52.070;8.596;2022-10-17T08:16:39;100865.31;;;16.51;100.00
55070;BME280;40967;52.070;8.596;2022-10-17T08:19:04;100875.22;;;16.65;100.00
55070;BME280;40967;52.070;8.596;2022-10-17T08:21:29;100876.44;;;16.73;100.00
55070;BME280;40967;52.070;8.596;2022-10-17T08:23:57;100863.97;;;16.80;99.92
55070;BME280;40967;52.070;8.596;2022-10-17T08:26:26;100860.53;;;16.88;99.42
55070;BME280;40967;52.070;8.596;2022-10-17T08:28:51;100860.75;;;16.92;98.88
55070;BME280;40967;52.070;8.596;2022-10-17T08:31:18;100859.72;;;17.01;98.47
55070;BME280;40967;52.070;8.596;2022-10-17T08:33:46;100862.06;;;17.08;98.17
55070;BME280;40967;52.070;8.596;2022-10-17T08:37:08;100870.09;;;17.18;97.61
55070;BME280;40967;52.070;8.596;2022-10-17T08:39:30;100855.38;;;17.28;96.81
55070;BME280;40967;52.070;8.596;2022-10-17T08:48:35;100830.06;;;17.44;95.59
55070;BME280;40967;52.070;8.596;2022-10-17T08:51:25;100850.44;;;17.79;95.28
55070;BME280;40967;52.070;8.596;2022-10-17T08:54:31;100857.88;;;18.00;94.32
55070;BME280;40967;52.070;8.596;2022-10-17T08:57:08;100857.75;;;18.19;93.63
55070;BME280;40967;52.070;8.596;2022-10-17T08:59:44;100856.41;;;18.39;93.06
55070;BME280;40967;52.070;8.596;2022-10-17T09:03:04;100852.06;;;18.60;92.33
55070;BME280;40967;52.070;8.596;2022-10-17T09:05:42;100852.50;;;18.84;91.98
55070;BME280;40967;52.070;8.596;2022-10-17T09:13:22;100859.31;;;19.25;89.35
55070;BME280;40967;52.070;8.596;2022-10-17T09:15:48;100856.16;;;19.41;88.24
55070;BME280;40967;52.070;8.596;2022-10-17T09:18:58;100857.47;;;19.52;88.04
55070;BME280;40967;52.070;8.596;2022-10-17T09:22:16;100863.97;;;19.64;87.72
55070;BME280;40967;52.070;8.596;2022-10-17T09:25:02;100868.06;;;19.75;86.47
55070;BME280;40967;52.070;8.596;2022-10-17T09:27:40;100870.66;;;19.89;84.79
55070;BME280;40967;52.070;8.596;2022-10-17T09:31:59;100853.97;;;20.02;83.20
55070;BME280;40967;52.070;8.596;2022-10-17T09:33:47;100853.81;;;20.24;82.00
55070;BME280;40967;52.070;8.596;2022-10-17T09:36:35;100826.25;;;20.24;81.44
55070;BME280;40967;52.070;8.596;2022-10-17T09:41:52;100857.44;;;20.88;78.82
55070;BME280;40967;52.070;8.596;2022-10-17T09:44:49;100854.59;;;21.14;78.70
55070;BME280;40967;52.070;8.596;2022-10-17T09:48:14;100859.78;;;21.44;76.68
55070;BME280;40967;52.070;8.596;2022-10-17T09:50:44;100870.34;;;21.72;75.99
55070;BME280;40967;52.070;8.596;2022-10-17T09:53:20;100865.13;;;21.99;74.58
55070;BME280;40967;52.070;8.596;2022-10-17T09:55:58;100867.53;;;22.21;73.54
55070;BME280;40967;52.070;8.596;2022-10-17T10:01:24;100867.63;;;22.66;72.01
55070;BME280;40967;52.070;8.596;2022-10-17T10:04:15;100871.59;;;22.89;71.65
55070;BME280;40967;52.070;8.596;2022-10-17T10:07:09;100864.84;;;23.11;70.57
55070;BME280;40967;52.070;8.596;2022-10-17T10:10:00;100862.00;;;23.31;69.36
55070;BME280;40967;52.070;8.596;2022-10-17T10:12:38;100839.38;;;23.41;69.22
55070;BME280;40967;52.070;8.596;2022-10-17T10:15:44;100860.44;;;23.70;67.04
55070;BME280;40967;52.070;8.596;2022-10-17T10:18:31;100862.06;;;23.83;65.68
55070;BME280;40967;52.070;8.596;2022-10-17T10:21:12;100875.41;;;23.93;65.01
55070;BME280;40967;52.070;8.596;2022-10-17T10:30:29;100884.94;;;23.80;64.38
55070;BME280;40967;52.070;8.596;2022-10-17T10:33:00;100863.53;;;23.81;64.43
55070;BME280;40967;52.070;8.596;2022-10-17T10:35:38;100896.47;;;24.06;63.52
55070;BME280;40967;52.070;8.596;2022-10-17T10:38:20;100877.47;;;23.96;63.70
55070;BME280;40967;52.070;8.596;2022-10-17T10:41:03;100872.41;;;23.98;64.42
55070;BME280;40967;52.070;8.596;2022-10-17T10:43:50;100897.31;;;24.22;63.77
55070;BME280;40967;52.070;8.596;2022-10-17T10:46:41;100888.25;;;23.98;63.02
55070;BME280;40967;52.070;8.596;2022-10-17T10:49:44;100896.88;;;23.96;62.83
55070;BME280;40967;52.070;8.596;2022-10-17T10:59:31;100911.63;;;24.24;63.02
55070;BME280;40967;52.070;8.596;2022-10-17T11:17:37;100939.88;;;23.90;61.92
55070;BME280;40967;52.070;8.596;2022-10-17T11:20:17;100924.28;;;23.61;62.76
55070;BME280;40967;52.070;8.596;2022-10-17T11:22:52;100941.72;;;23.62;62.51
55070;BME280;40967;52.070;8.596;2022-10-17T11:25:35;100967.84;;;23.61;62.52
55070;BME280;40967;52.070;8.596;2022-10-17T11:28:03;100969.44;;;23.50;62.98
55070;BME280;40967;52.070;8.596;2022-10-17T11:33:17;100978.56;;;23.18;62.87
55070;BME280;40967;52.070;8.596;2022-10-17T11:35:44;100985.22;;;23.05;63.00
55070;BME280;40967;52.070;8.596;2022-10-17T11:49:52;100993.41;;;22.69;64.90
55070;BME280;40967;52.070;8.596;2022-10-17T11:52:33;100983.94;;;22.70;65.52
55070;BME280;40967;52.070;8.596;2022-10-17T12:03:20;101009.22;;;22.39;65.56
55070;BME280;40967;52.070;8.596;2022-10-17T12:12:42;101022.94;;;22.06;66.91
55070;BME280;40967;52.070;8.596;2022-10-17T12:18:10;101016.25;;;21.70;67.86
55070;BME280;40967;52.070;8.596;2022-10-17T12:20:36;101021.19;;;21.56;67.72
55070;BME280;40967;52.070;8.596;2022-10-17T12:26:04;101010.50;;;21.46;68.00
55070;BME280;40967;52.070;8.596;2022-10-17T12:32:12;101008.69;;;21.50;68.49
55070;BME280;40967;52.070;8.596;2022-10-17T12:35:13;101003.34;;;21.44;68.38
55070;BME280;40967;52.070;8.596;2022-10-17T12:38:19;101022.78;;;21.57;68.36
55070;BME280;40967;52.070;8.596;2022-10-17T12:40:52;101024.41;;;21.66;67.91
55070;BME280;40967;52.070;8.596;2022-10-17T12:53:45;101010.38;;;21.25;68.59
55070;BME280;40967;52.070;8.596;2022-10-17T12:56:53;101016.34;;;21.35;68.70
55070;BME280;40967;52.070;8.596;2022-10-17T12:59:34;101009.72;;;21.36;68.96
55070;BME280;40967;52.070;8.596;2022-10-17T13:02:18;101012.16;;;21.38;69.54
55070;BME280;40967;52.070;8.596;2022-10-17T13:05:34;100998.84;;;21.31;70.00
55070;BME280;40967;52.070;8.596;2022-10-17T13:08:27;100996.59;;;21.33;70.04
55070;BME280;40967;52.070;8.596;2022-10-17T13:13:49;101009.72;;;21.36;69.91
55070;BME280;40967;52.070;8.596;2022-10-17T13:26:43;101023.53;;;21.36;70.44
55070;BME280;40967;52.070;8.596;2022-10-17T13:29:13;101024.00;;;21.38;70.48
55070;BME280;40967;52.070;8.596;2022-10-17T13:32:11;101023.00;;;21.43;70.34
55070;BME280;40967;52.070;8.596;2022-10-17T13:35:08;101032.75;;;21.49;70.43
55070;BME280;40967;52.070;8.596;2022-10-17T13:37:37;101035.81;;;21.56;70.06
55070;BME280;40967;52.070;8.596;2022-10-17T13:40:04;101024.59;;;21.61;69.94
55070;BME280;40967;52.070;8.596;2022-10-17T13:45:38;101039.50;;;21.60;70.48
55070;BME280;40967;52.070;8.596;2022-10-17T13:51:53;101015.75;;;21.30;69.79
55070;BME280;40967;52.070;8.596;2022-10-17T13:54:59;101042.81;;;21.45;69.79
55070;BME280;40967;52.070;8.596;2022-10-17T13:57:40;101044.56;;;21.50;69.70
55070;BME280;40967;52.070;8.596;2022-10-17T14:00:38;101050.28;;;21.44;69.36
55070;BME280;40967;52.070;8.596;2022-10-17T14:03:14;101062.00;;;21.33;69.49
55070;BME280;40967;52.070;8.596;2022-10-17T14:09:19;101068.81;;;21.27;69.51
55070;BME280;40967;52.070;8.596;2022-10-17T14:11:31;101067.22;;;21.17;69.36
55070;BME280;40967;52.070;8.596;2022-10-17T14:14:30;101069.69;;;21.10;69.30
55070;BME280;40967;52.070;8.596;2022-10-17T14:17:00;101080.56;;;21.07;69.57
55070;BME280;40967;52.070;8.596;2022-10-17T14:22:32;101066.09;;;20.93;69.51
55070;BME280;40967;52.070;8.596;2022-10-17T14:25:00;101067.22;;;20.92;69.65
55070;BME280;40967;52.070;8.596;2022-10-17T14:28:00;101076.31;;;21.01;69.45
55070;BME280;40967;52.070;8.596;2022-10-17T14:30:37;101073.38;;;20.89;69.55
55070;BME280;40967;52.070;8.596;2022-10-17T14:33:25;101087.16;;;20.97;69.69
55070;BME280;40967;52.070;8.596;2022-10-17T14:36:02;101095.78;;;20.96;70.07
55070;BME280;40967;52.070;8.596;2022-10-17T14:38:29;101100.50;;;20.95;69.73
55070;BME280;40967;52.070;8.596;2022-10-17T14:46:45;101110.88;;;20.90;70.82
55070;BME280;40967;52.070;8.596;2022-10-17T14:49:33;101089.75;;;20.77;71.10
55070;BME280;40967;52.070;8.596;2022-10-17T14:52:23;101119.59;;;20.83;71.00
55070;BME280;40967;52.070;8.596;2022-10-17T14:55:22;101101.94;;;20.76;71.08
55070;BME280;40967;52.070;8.596;2022-10-17T14:57:51;101120.25;;;20.80;71.43
55070;BME280;40967;52.070;8.596;2022-10-17T15:00:22;101123.19;;;20.75;71.80
55070;BME280;40967;52.070;8.596;2022-10-17T15:03:01;101130.78;;;20.70;71.95
55070;BME280;40967;52.070;8.596;2022-10-17T15:05:31;101120.75;;;20.65;72.14
55070;BME280;40967;52.070;8.596;2022-10-17T15:07:59;101124.16;;;20.62;72.30
55070;BME280;40967;52.070;8.596;2022-10-17T15:13:22;101125.09;;;20.66;72.24
55070;BME280;40967;52.070;8.596;2022-10-17T15:16:46;101126.09;;;20.62;72.61
55070;BME280;40967;52.070;8.596;2022-10-17T15:26:44;101138.72;;;20.54;73.33
55070;BME280;40967;52.070;8.596;2022-10-17T15:29:47;101142.63;;;20.53;73.64
55070;BME280;40967;52.070;8.596;2022-10-17T15:32:17;101140.34;;;20.55;73.28
55070;BME280;40967;52.070;8.596;2022-10-17T15:34:47;101134.03;;;20.55;73.13
55070;BME280;40967;52.070;8.596;2022-10-17T15:40:13;101141.47;;;20.54;73.16
55070;BME280;40967;52.070;8.596;2022-10-17T15:42:53;101139.69;;;20.50;73.41
55070;BME280;40967;52.070;8.596;2022-10-17T15:45:21;101143.88;;;20.47;73.90
55070;BME280;40967;52.070;8.596;2022-10-17T15:47:51;101154.13;;;20.47;73.97
55070;BME280;40967;52.070;8.596;2022-10-17T15:50:26;101158.13;;;20.41;74.02
55070;BME280;40967;52.070;8.596;2022-10-17T15:56:27;101170.75;;;20.33;74.78
55070;BME280;40967;52.070;8.596;2022-10-17T15:59:17;101175.44;;;20.24;74.89
55070;BME280;40967;52.070;8.596;2022-10-17T16:01:48;101181.25;;;20.22;75.31
55070;BME280;40967;52.070;8.596;2022-10-17T16:04:14;101191.88;;;20.15;75.59
55070;BME280;40967;52.070;8.596;2022-10-17T16:06:42;101163.63;;;20.01;75.53
55070;BME280;40967;52.070;8.596;2022-10-17T16:09:15;101188.47;;;20.10;75.93
55070;BME280;40967;52.070;8.596;2022-10-17T16:11:45;101198.47;;;20.06;76.09
55070;BME280;40967;52.070;8.596;2022-10-17T16:14:31;101205.75;;;20.02;76.27
55070;BME280;40967;52.070;8.596;2022-10-17T16:17:04;101204.44;;;19.99;76.41
55070;BME280;40967;52.070;8.596;2022-10-17T16:19:33;101202.94;;;19.93;76.69
55070;BME280;40967;52.070;8.596;2022-10-17T16:22:04;101206.34;;;19.90;77.12